Time;durP1;ratioP1;P1;durP2;ratioP2;P2;SDS_P1;SDS_P2;PMS_P1;PMS_P2;Temp;Humidity;BMP_temperature;BMP_pressure;BME280_temperature;BME280_humidity;BME280_pressure;Samples;Min_cycle;Max_cycle;Signal;HPM_P1;HPM_P2
2021/11/11 00:07:14;;;;;;;24.97;18.13;;;;;;;7.33;53.32;98549.47;8312850;22;20281;-85
2021/11/11 00:11:18;;;;;;;24.87;18.73;;;;;;;7.28;53.29;98544.44;8290214;23;20225;-63
2021/11/11 00:15:22;;;;;;;22.57;18.60;;;;;;;7.29;52.96;98543.56;8316941;28;20243;-63
2021/11/11 00:19:25;;;;;;;21.70;18.63;;;;;;;7.32;53.04;98540.91;8317112;28;20233;-63
2021/11/11 00:23:28;;;;;;;23.20;18.83;;;;;;;7.38;52.84;98555.38;8316385;28;20233;-63
2021/11/11 00:27:32;;;;;;;19.93;17.07;;;;;;;7.37;52.95;98556.28;8316742;28;20543;-64
2021/11/11 00:31:35;;;;;;;23.23;18.43;;;;;;;7.28;53.09;98559.88;8316818;28;20240;-63
2021/11/11 00:35:38;;;;;;;25.30;18.53;;;;;;;7.32;53.40;98569.25;8316703;28;20236;-63
2021/11/11 00:39:41;;;;;;;29.50;20.10;;;;;;;7.35;53.40;98565.75;8316654;28;20237;-63
2021/11/11 00:43:46;;;;;;;32.67;21.23;;;;;;;7.29;53.52;98555.56;8316675;28;20293;-63
2021/11/11 00:47:50;;;;;;;30.93;22.47;;;;;;;7.28;53.63;98548.75;8316283;28;20542;-63
2021/11/11 00:51:53;;;;;;;36.20;23.30;;;;;;;7.21;54.32;98559.16;8316339;28;20224;-63
2021/11/11 00:55:56;;;;;;;30.47;22.17;;;;;;;7.24;54.54;98550.53;8315595;28;20388;-63
2021/11/11 01:00:00;;;;;;;68.07;21.97;;;;;;;7.10;54.90;98548.25;8316187;28;20239;-63
2021/11/11 01:04:03;;;;;;;48.90;21.00;;;;;;;7.03;54.80;98557.84;8315921;28;20229;-64
2021/11/11 01:08:07;;;;;;;43.57;20.60;;;;;;;7.00;55.30;98555.31;8316029;28;20546;-64
2021/11/11 01:12:10;;;;;;;23.50;19.60;;;;;;;7.07;54.50;98563.78;8316040;28;20232;-65
2021/11/11 01:16:14;;;;;;;30.77;20.33;;;;;;;7.03;55.10;98567.28;8315877;28;20259;-64
2021/11/11 01:20:19;;;;;;;36.23;20.63;;;;;;;6.97;55.46;98570.84;8315864;28;20233;-63
2021/11/11 01:24:22;;;;;;;25.70;20.07;;;;;;;7.05;55.13;98576.66;8315724;28;20543;-64
2021/11/11 01:28:25;;;;;;;30.17;20.03;;;;;;;7.04;55.76;98558.66;8315543;28;20236;-65
2021/11/11 01:32:29;;;;;;;27.20;20.50;;;;;;;7.14;55.09;98567.03;8314894;28;20239;-64
2021/11/11 01:36:32;;;;;;;28.90;19.10;;;;;;;6.98;54.99;98557.06;8315417;28;20662;-64
2021/11/11 01:40:35;;;;;;;53.60;19.47;;;;;;;6.78;55.92;98567.78;8315118;28;20248;-64
2021/11/11 01:44:38;;;;;;;60.80;20.33;;;;;;;6.89;55.69;98569.28;8316572;28;20418;-64
2021/11/11 01:48:42;;;;;;;48.17;19.07;;;;;;;6.93;55.49;98556.34;8314575;28;20546;-64
2021/11/11 01:52:45;;;;;;;21.63;18.40;;;;;;;6.89;55.36;98564.97;8314875;28;20414;-64
2021/11/11 01:56:48;;;;;;;19.67;17.57;;;;;;;6.91;55.07;98570.97;8314732;28;20229;-64
2021/11/11 02:00:53;;;;;;;20.17;17.97;;;;;;;6.90;54.95;98558.13;8314863;28;20236;-64
2021/11/11 02:04:58;;;;;;;22.20;18.93;;;;;;;6.72;54.86;98549.88;8314568;28;20231;-64
2021/11/11 02:09:01;;;;;;;26.80;19.00;;;;;;;6.70;54.64;98532.75;8320928;28;20233;-64
2021/11/11 02:13:05;;;;;;;37.23;21.27;;;;;;;6.75;55.08;98531.78;8321039;28;20236;-64
2021/11/11 02:17:08;;;;;;;26.30;20.97;;;;;;;6.79;55.02;98527.44;8321131;28;20239;-64
2021/11/11 02:21:13;;;;;;;38.00;21.10;;;;;;;6.61;55.27;98532.06;8320852;28;20295;-64
2021/11/11 02:25:19;;;;;;;25.27;20.53;;;;;;;6.73;54.82;98536.13;8320566;28;20252;-64
2021/11/11 02:29:22;;;;;;;27.13;21.27;;;;;;;6.71;54.41;98529.31;8320697;28;20228;-64
2021/11/11 02:33:26;;;;;;;23.67;21.17;;;;;;;6.75;54.23;98536.09;8320817;28;20556;-64
2021/11/11 02:37:32;;;;;;;21.40;18.80;;;;;;;6.63;54.16;98542.34;8319831;28;20248;-64
2021/11/11 02:41:35;;;;;;;20.13;18.13;;;;;;;6.53;53.65;98533.06;8320158;28;20237;-64
2021/11/11 02:45:40;;;;;;;18.80;16.87;;;;;;;6.52;53.83;98523.69;8320214;28;20232;-64
2021/11/11 02:49:43;;;;;;;18.37;16.20;;;;;;;6.49;53.18;98521.16;8320121;28;20241;-64
2021/11/11 02:53:47;;;;;;;17.33;15.73;;;;;;;6.47;53.57;98513.44;8320074;28;20502;-64
2021/11/11 02:57:52;;;;;;;16.83;15.27;;;;;;;6.54;53.38;98507.31;8319712;28;20292;-64
2021/11/11 03:01:54;;;;;;;24.63;18.17;;;;;;;6.39;54.23;98508.44;8319632;28;20237;-64
2021/11/11 03:05:58;;;;;;;20.60;18.53;;;;;;;6.43;54.03;98504.94;8319500;28;20231;-63
2021/11/11 03:10:03;;;;;;;21.23;18.27;;;;;;;6.55;54.10;98511.59;8319115;28;20241;-64
2021/11/11 03:14:06;;;;;;;21.43;19.03;;;;;;;6.63;54.09;98511.44;8319161;28;20240;-64
2021/11/11 03:18:10;;;;;;;21.13;18.73;;;;;;;6.52;54.85;98521.94;8318166;28;20331;-64
2021/11/11 03:22:16;;;;;;;27.60;20.00;;;;;;;6.53;54.51;98515.94;8318939;28;20229;-64
2021/11/11 03:26:22;;;;;;;32.40;21.10;;;;;;;6.37;55.09;98524.81;8318745;28;20239;-64
2021/11/11 03:30:26;;;;;;;23.37;19.67;;;;;;;6.32;54.62;98534.31;8318594;28;20224;-63
2021/11/11 03:34:29;;;;;;;22.17;18.80;;;;;;;6.49;54.16;98539.16;8318150;28;20224;-64
2021/11/11 03:38:32;;;;;;;27.13;19.20;;;;;;;6.32;54.55;98535.19;8318376;28;20239;-64
2021/11/11 03:42:36;;;;;;;22.77;20.37;;;;;;;6.42;54.74;98544.44;8318336;28;20232;-64
2021/11/11 03:46:39;;;;;;;27.40;19.53;;;;;;;6.24;55.04;98547.31;8318027;28;20240;-64
2021/11/11 03:50:42;;;;;;;19.57;17.33;;;;;;;6.41;54.39;98560.72;8318037;28;20236;-64
2021/11/11 03:54:45;;;;;;;18.20;16.30;;;;;;;6.41;54.34;98555.59;8317893;28;20235;-64
2021/11/11 03:58:49;;;;;;;57.37;18.57;;;;;;;6.27;54.65;98549.84;8317791;28;20534;-64
2021/11/11 04:02:52;;;;;;;41.23;19.07;;;;;;;6.13;56.08;98559.50;8317525;28;20235;-64
2021/11/11 04:06:55;;;;;;;53.33;19.13;;;;;;;6.21;55.44;98562.81;8317729;28;20542;-64
2021/11/11 04:10:58;;;;;;;53.80;19.97;;;;;;;6.12;55.56;98552.69;8317137;28;20308;-64
2021/11/11 04:15:03;;;;;;;21.47;19.07;;;;;;;6.30;55.25;98554.09;8317465;28;20259;-64
2021/11/11 04:19:06;;;;;;;29.90;19.20;;;;;;;6.31;55.15;98543.78;8317215;28;20240;-64
2021/11/11 04:23:09;;;;;;;61.30;20.03;;;;;;;6.15;55.32;98537.19;8317562;28;20519;-64
2021/11/11 04:27:16;;;;;;;35.13;19.07;;;;;;;6.15;55.46;98535.50;8317297;28;20422;-64
2021/11/11 04:31:25;;;;;;;24.00;18.70;;;;;;;6.23;55.02;98530.22;8317058;28;20539;-64
2021/11/11 04:35:28;;;;;;;20.53;18.20;;;;;;;6.20;55.16;98531.09;8316573;28;20229;-64
2021/11/11 04:44:05;;;;;;;20.20;16.07;;;;;;;6.28;54.15;98522.41;8301476;28;20239;-64
2021/11/11 04:52:43;;;;;;;18.33;15.27;;;;;;;6.17;54.27;98526.03;8315627;28;20225;-65
2021/11/11 05:01:18;;;;;;;15.43;14.03;;;;;;;6.05;54.25;98532.22;8315577;28;20233;-65
2021/11/11 05:05:23;;;;;;;14.73;13.23;;;;;;;5.99;54.23;98532.31;8315562;28;20236;-64
2021/11/11 05:09:26;;;;;;;18.23;14.63;;;;;;;5.88;53.82;98540.19;8314661;28;20241;-64
2021/11/11 05:13:29;;;;;;;14.87;13.47;;;;;;;6.03;53.76;98535.69;8311629;28;20239;-64
2021/11/11 05:17:32;;;;;;;15.10;13.70;;;;;;;6.07;53.74;98539.91;8287790;28;20425;-64
2021/11/11 05:21:36;;;;;;;14.57;13.17;;;;;;;5.99;53.98;98534.03;8282981;28;20535;-64
2021/11/11 05:25:39;;;;;;;16.20;14.50;;;;;;;6.04;54.02;98527.13;8282829;28;20237;-64
2021/11/11 05:29:42;;;;;;;15.50;14.00;;;;;;;6.00;53.89;98535.75;8282820;28;20237;-64
2021/11/11 05:33:45;;;;;;;16.17;14.47;;;;;;;6.06;54.05;98538.22;8282829;28;20553;-64
2021/11/11 05:37:49;;;;;;;16.53;14.03;;;;;;;6.14;54.27;98541.50;8282953;28;20229;-64
2021/11/11 05:41:52;;;;;;;15.40;13.80;;;;;;;6.06;54.65;98548.50;8282545;28;20236;-63
2021/11/11 05:45:55;;;;;;;18.13;14.50;;;;;;;6.00;53.90;98540.91;8282852;28;20234;-63
2021/11/11 05:50:04;;;;;;;16.37;13.03;;;;;;;5.90;54.49;98547.00;8282462;28;20233;-64
2021/11/11 05:54:10;;;;;;;15.20;13.70;;;;;;;5.90;54.63;98541.88;8298086;28;20244;-64
2021/11/11 05:58:13;;;;;;;14.43;13.03;;;;;;;6.02;54.35;98546.88;8297662;28;20236;-64
2021/11/11 06:02:16;;;;;;;13.33;11.93;;;;;;;6.01;54.30;98537.44;8297854;28;20226;-66
2021/11/11 06:06:19;;;;;;;18.17;14.60;;;;;;;5.91;54.77;98549.56;8297663;28;20228;-66
2021/11/11 06:10:24;;;;;;;37.20;14.33;;;;;;;5.85;55.25;98537.66;8284835;28;20352;-66
2021/11/11 06:14:27;;;;;;;121.37;20.50;;;;;;;5.35;55.83;98539.28;8305177;28;20236;-64
2021/11/11 06:18:30;;;;;;;25.80;16.97;;;;;;;5.56;56.41;98548.41;8314428;28;20244;-64
2021/11/11 06:22:33;;;;;;;25.27;15.63;;;;;;;5.72;56.34;98553.31;8305514;28;20228;-64
2021/11/11 06:26:38;;;;;;;21.93;15.67;;;;;;;5.92;55.94;98565.84;8306305;28;20237;-64
2021/11/11 06:30:41;;;;;;;30.07;16.23;;;;;;;5.86;56.32;98559.06;8296498;28;20239;-64
2021/11/11 06:34:44;;;;;;;34.27;15.60;;;;;;;5.76;56.05;98549.81;8303247;28;20239;-64
2021/11/11 06:38:47;;;;;;;17.57;14.10;;;;;;;5.93;56.01;98563.25;8297223;28;20240;-64
2021/11/11 06:42:51;;;;;;;29.30;15.23;;;;;;;5.97;54.99;98587.22;8303391;28;20235;-64
2021/11/11 06:46:54;;;;;;;40.10;14.43;;;;;;;5.82;56.16;98588.25;8314338;28;20527;-64
2021/11/11 06:50:57;;;;;;;26.60;14.70;;;;;;;5.98;55.55;98591.50;8314119;28;20279;-63
2021/11/11 06:55:00;;;;;;;22.37;15.47;;;;;;;6.09;55.36;98593.88;8318375;28;20233;-63
2021/11/11 06:59:05;;;;;;;25.50;14.37;;;;;;;5.66;56.18;98603.91;8319910;28;20232;-64
2021/11/11 07:03:08;;;;;;;20.43;13.97;;;;;;;5.85;55.94;98607.06;8319887;28;20557;-64
2021/11/11 07:07:11;;;;;;;39.93;15.23;;;;;;;5.92;56.32;98607.84;8319658;28;20225;-64
2021/11/11 07:11:14;;;;;;;43.17;14.03;;;;;;;5.93;56.22;98611.25;8319473;28;20244;-64
2021/11/11 07:15:18;;;;;;;21.07;14.47;;;;;;;5.98;56.01;98612.91;8319378;28;20562;-63
2021/11/11 07:19:21;;;;;;;18.87;14.10;;;;;;;6.09;55.90;98619.59;8319632;28;20236;-64
2021/11/11 07:23:24;;;;;;;14.80;13.20;;;;;;;6.15;55.59;98625.50;8319073;28;20233;-63
2021/11/11 07:27:27;;;;;;;30.53;12.60;;;;;;;5.88;55.88;98629.28;8318630;28;20403;-64
2021/11/11 07:31:36;;;;;;;16.03;12.13;;;;;;;6.03;55.79;98625.69;8318857;28;20300;-64
2021/11/11 07:35:41;;;;;;;26.37;12.20;;;;;;;5.86;55.87;98633.59;8319284;28;20406;-64
2021/11/11 07:39:44;;;;;;;25.50;13.40;;;;;;;5.92;55.12;98627.53;8318650;28;20428;-63
2021/11/11 07:43:48;;;;;;;11.97;10.70;;;;;;;6.13;54.76;98626.38;8318321;28;20240;-63
2021/11/11 07:47:55;;;;;;;11.73;10.63;;;;;;;6.07;54.80;98619.59;8318100;28;20456;-64
2021/11/11 07:52:03;;;;;;;11.37;10.37;;;;;;;6.29;54.69;98617.56;8318305;28;20233;-63
2021/11/11 07:56:06;;;;;;;12.00;10.07;;;;;;;6.53;53.89;98625.72;8318038;28;20243;-63
2021/11/11 08:00:12;;;;;;;12.43;10.67;;;;;;;6.51;54.19;98618.03;8317398;28;20245;-64
2021/11/11 08:04:16;;;;;;;13.87;11.53;;;;;;;6.45;53.89;98612.97;8313533;28;20251;-64
2021/11/11 08:08:19;;;;;;;16.17;14.20;;;;;;;6.55;54.71;98600.81;8317557;28;20534;-63
2021/11/11 08:12:22;;;;;;;19.33;15.50;;;;;;;6.47;55.04;98598.38;8317308;28;20559;-63
2021/11/11 08:16:25;;;;;;;18.83;15.43;;;;;;;6.55;54.40;98603.38;8317289;28;20239;-63
2021/11/11 08:20:29;;;;;;;17.37;15.50;;;;;;;6.49;54.27;98613.78;8316686;28;20426;-64
2021/11/11 08:24:33;;;;;;;18.10;14.93;;;;;;;6.51;54.59;98633.50;8316985;28;20243;-64
2021/11/11 08:28:37;;;;;;;17.37;14.60;;;;;;;6.72;55.04;98650.28;8316980;28;20241;-64
2021/11/11 08:32:41;;;;;;;18.43;15.50;;;;;;;6.74;54.23;98627.06;8316677;28;20573;-64
2021/11/11 08:36:45;;;;;;;17.43;14.90;;;;;;;6.88;54.89;98632.81;8316462;28;20244;-64
2021/11/11 08:40:48;;;;;;;18.90;15.57;;;;;;;6.81;55.10;98629.47;8316723;28;20240;-64
2021/11/11 08:44:53;;;;;;;18.40;14.60;;;;;;;6.82;54.54;98635.50;8301230;28;20551;-64
2021/11/11 08:48:56;;;;;;;16.40;14.40;;;;;;;6.83;54.76;98637.19;8296654;28;20240;-64
2021/11/11 08:53:02;;;;;;;18.00;13.80;;;;;;;6.84;54.67;98639.75;8283543;28;20425;-64
2021/11/11 08:57:05;;;;;;;17.53;14.30;;;;;;;6.70;55.34;98643.44;8303025;28;20239;-63
2021/11/11 09:01:13;;;;;;;16.00;14.40;;;;;;;7.05;55.13;98642.78;8316045;28;20236;-64
2021/11/11 09:05:18;;;;;;;21.63;16.10;;;;;;;7.17;55.31;98646.84;8316012;28;20415;-64
2021/11/11 09:09:22;;;;;;;17.00;15.30;;;;;;;7.21;54.87;98651.91;8314538;28;20426;-64
2021/11/11 09:13:26;;;;;;;21.23;15.37;;;;;;;7.26;54.17;98654.41;8297652;28;20642;-65
2021/11/11 09:17:29;;;;;;;13.57;12.10;;;;;;;10.30;57.86;98629.25;8314380;28;20233;-62
2021/11/11 09:21:32;;;;;;;14.03;11.83;;;;;;;11.13;48.59;98635.06;8315544;28;20263;-62
2021/11/11 09:25:36;;;;;;;14.97;13.47;;;;;;;11.24;45.85;98633.84;8315502;28;20241;-64
2021/11/11 09:29:39;;;;;;;16.83;15.13;;;;;;;9.72;47.95;98632.78;8315219;28;20243;-64
2021/11/11 09:33:43;;;;;;;17.60;15.07;;;;;;;9.39;49.83;98627.72;8315091;28;20237;-62
2021/11/11 09:37:48;;;;;;;17.20;15.40;;;;;;;9.08;50.80;98642.41;8314393;28;20241;-62
2021/11/11 09:41:56;;;;;;;17.20;15.37;;;;;;;8.92;51.16;98642.81;8311944;28;20239;-62
2021/11/11 09:45:59;;;;;;;18.30;16.40;;;;;;;8.89;51.05;98639.47;8315070;28;20232;-63
2021/11/11 09:50:03;;;;;;;18.63;16.70;;;;;;;8.82;51.51;98651.72;8315021;28;20239;-62
2021/11/11 09:58:38;;;;;;;22.77;16.67;;;;;;;8.82;52.09;98638.78;8301921;28;20393;-62
2021/11/11 10:02:42;;;;;;;21.13;16.73;;;;;;;8.92;51.11;98641.97;8314800;28;20423;-62
2021/11/11 10:06:45;;;;;;;21.53;18.17;;;;;;;8.78;51.76;98648.34;8314684;28;20473;-62
2021/11/11 10:10:48;;;;;;;18.57;16.43;;;;;;;8.95;52.49;98649.66;8314411;28;20244;-61
2021/11/11 10:14:53;;;;;;;20.60;18.40;;;;;;;8.67;52.62;98655.53;8314922;28;20228;-62
2021/11/11 10:18:58;;;;;;;21.93;18.43;;;;;;;8.96;52.10;98659.91;8314625;28;20233;-62
2021/11/11 10:23:21;;;;;;;21.10;18.17;;;;;;;9.09;52.07;98657.88;8314408;28;20228;-63
2021/11/11 10:27:27;;;;;;;20.67;17.30;;;;;;;9.10;52.10;98654.41;8316574;28;20300;-62
2021/11/11 10:31:32;;;;;;;19.87;17.77;;;;;;;9.28;51.82;98654.78;8320763;28;20243;-63
2021/11/11 10:35:38;;;;;;;19.67;17.00;;;;;;;9.23;51.77;98659.22;8320766;28;20232;-62
2021/11/11 10:39:41;;;;;;;19.33;17.33;;;;;;;9.57;51.45;98665.13;8320343;28;20244;-62
2021/11/11 10:43:44;;;;;;;16.80;15.20;;;;;;;9.61;51.54;98654.69;8320246;28;20237;-62
2021/11/11 10:48:05;;;;;;;18.63;15.23;;;;;;;9.72;51.49;98647.47;8320675;28;20421;-62
2021/11/11 10:52:32;;;;;;;16.87;14.87;;;;;;;9.99;50.82;98635.41;8320441;28;20527;-63
2021/11/11 10:56:43;;;;;;;18.17;16.23;;;;;;;9.99;50.56;98643.19;8319602;28;20232;-62
2021/11/11 11:00:49;;;;;;;20.30;15.93;;;;;;;9.86;51.80;98637.56;8319353;28;20245;-62
2021/11/11 11:05:06;;;;;;;18.67;16.57;;;;;;;9.87;51.56;98633.22;8318743;28;20543;-62
2021/11/11 11:09:09;;;;;;;20.07;17.93;;;;;;;10.06;51.35;98631.75;8319252;28;20259;-64
2021/11/11 11:13:15;;;;;;;21.73;19.10;;;;;;;10.16;51.00;98633.13;8319334;28;20243;-62
2021/11/11 11:17:17;;;;;;;19.90;17.90;;;;;;;9.87;52.14;98634.06;8319428;28;20235;-62
2021/11/11 11:21:23;;;;;;;20.93;17.90;;;;;;;9.90;52.60;98633.97;8320102;28;20232;-63
2021/11/11 11:25:29;;;;;;;22.30;17.23;;;;;;;9.73;53.26;98629.31;8319075;28;20421;-62
2021/11/11 11:29:35;;;;;;;19.43;17.40;;;;;;;10.33;52.10;98629.19;8318950;28;20237;-63
2021/11/11 11:33:45;;;;;;;18.47;16.60;;;;;;;10.34;51.82;98623.97;8318987;28;20237;-62
2021/11/11 11:37:49;;;;;;;18.97;17.03;;;;;;;10.32;51.59;98623.19;8318585;28;20419;-62
2021/11/11 11:41:54;;;;;;;22.57;16.57;;;;;;;10.49;51.99;98614.00;8318045;28;20299;-62
2021/11/11 11:46:15;;;;;;;18.90;16.93;;;;;;;10.47;52.15;98610.59;8318392;28;20233;-65
2021/11/11 11:50:23;;;;;;;19.23;17.10;;;;;;;10.66;51.76;98600.47;8316402;28;20404;-65
2021/11/11 11:54:35;;;;;;;17.87;16.07;;;;;;;10.84;51.08;98612.78;8285984;28;20243;-66
2021/11/11 11:58:42;;;;;;;22.07;17.63;;;;;;;10.85;51.42;98596.38;8315889;28;20243;-65
2021/11/11 12:02:59;;;;;;;18.13;15.23;;;;;;;11.28;51.39;98589.59;8317511;28;20245;-66
2021/11/11 12:07:15;;;;;;;16.77;15.07;;;;;;;11.47;50.67;98600.13;8317720;28;20228;-66
2021/11/11 12:12:04;;;;;;;18.10;16.07;;;;;;;11.64;50.34;98601.25;8305590;28;20301;-65
2021/11/11 12:16:41;;;;;;;17.67;15.80;;;;;;;11.54;50.63;98583.44;8317148;28;20287;-66
2021/11/11 12:29:58;;;;;;;17.37;15.50;;;;;;;11.62;52.06;98577.09;8304964;28;20230;-66
2021/11/11 12:34:28;;;;;;;16.20;14.53;;;;;;;11.53;53.26;98570.50;8299514;28;20229;-66
2021/11/11 12:38:41;;;;;;;18.70;16.70;;;;;;;11.69;52.48;98566.44;8299194;28;20225;-66
2021/11/11 12:42:52;;;;;;;17.97;16.07;;;;;;;11.92;51.64;98570.75;8296698;28;20524;-66
2021/11/11 12:46:57;;;;;;;21.17;16.33;;;;;;;12.03;51.70;98566.84;8283983;28;20236;-66
2021/11/11 12:51:06;;;;;;;20.00;16.70;;;;;;;12.27;51.40;98560.66;8284450;28;20543;-66
2021/11/11 12:55:17;;;;;;;19.93;17.83;;;;;;;12.22;51.33;98556.56;8316120;28;20231;-66
2021/11/11 12:59:23;;;;;;;20.80;17.63;;;;;;;12.29;51.66;98552.81;8312784;28;20226;-67
2021/11/11 13:03:46;;;;;;;19.03;17.03;;;;;;;12.42;51.42;98550.53;8298368;28;20233;-66
2021/11/11 13:07:52;;;;;;;22.70;18.13;;;;;;;12.28;50.68;98541.56;8298652;28;20240;-67
2021/11/11 13:11:57;;;;;;;18.77;16.77;;;;;;;12.58;51.35;98535.97;8297415;28;20236;-64
2021/11/11 13:16:01;;;;;;;23.93;18.33;;;;;;;12.77;50.22;98533.41;8312592;28;20236;-63
2021/11/11 13:20:19;;;;;;;21.53;17.10;;;;;;;12.71;49.46;98534.50;8288048;28;20237;-64
2021/11/11 13:24:36;;;;;;;23.50;19.80;;;;;;;12.65;49.47;98529.59;8282832;28;20229;-63
2021/11/11 13:43:33;;;;;;;26.73;19.87;;;;;;;12.95;48.90;98530.91;8282646;28;20519;-62
2021/11/11 16:03:19;;;;;;;18.17;16.20;;;;;;;10.46;56.12;98532.09;8317682;28;20232;-62
2021/11/11 16:20:28;;;;;;;19.03;17.17;;;;;;;10.21;56.22;98555.34;8317065;28;20521;-61
2021/11/11 16:24:35;;;;;;;20.93;17.63;;;;;;;10.18;56.21;98561.50;8316591;28;20224;-61
2021/11/11 16:28:39;;;;;;;21.93;18.70;;;;;;;10.05;56.29;98572.28;8312379;28;20255;-64
2021/11/11 16:32:44;;;;;;;29.33;26.23;;;;;;;10.02;56.28;98578.41;8316712;28;20247;-63
2021/11/11 16:36:48;;;;;;;27.20;24.23;;;;;;;9.98;56.87;98575.06;8316306;28;20328;-67
2021/11/11 16:40:51;;;;;;;25.73;21.47;;;;;;;9.96;56.88;98578.59;8316643;28;20232;-63
2021/11/11 16:44:54;;;;;;;22.67;20.17;;;;;;;9.89;56.96;98572.78;8315238;28;20235;-64
2021/11/11 16:48:58;;;;;;;23.30;19.10;;;;;;;9.83;56.86;98570.38;8315449;28;20244;-64
2021/11/11 16:53:01;;;;;;;21.73;19.07;;;;;;;9.81;57.11;98584.28;8316333;28;20246;-64
2021/11/11 16:57:05;;;;;;;21.57;19.20;;;;;;;9.76;56.79;98577.47;8316175;28;20251;-63
2021/11/11 17:01:08;;;;;;;22.27;20.03;;;;;;;9.76;56.79;98580.06;8316371;28;20233;-64
2021/11/11 17:05:13;;;;;;;24.03;21.43;;;;;;;9.65;56.64;98586.47;8315738;28;20228;-64
2021/11/11 17:09:18;;;;;;;29.33;21.43;;;;;;;9.60;56.21;98594.38;8304270;28;20232;-65
2021/11/11 17:13:21;;;;;;;23.70;21.13;;;;;;;9.50;56.56;98601.56;8298384;28;20229;-65
2021/11/11 17:17:24;;;;;;;25.77;22.03;;;;;;;9.46;56.00;98605.16;8306399;28;20233;-64
2021/11/11 17:21:28;;;;;;;26.57;23.67;;;;;;;9.42;56.08;98602.69;8314862;28;20237;-65
2021/11/11 17:25:38;;;;;;;27.10;23.83;;;;;;;9.41;56.34;98604.41;8314995;28;20225;-65
2021/11/11 17:29:41;;;;;;;25.20;22.60;;;;;;;9.52;55.93;98604.09;8315404;28;20232;-61
2021/11/11 17:33:44;;;;;;;32.77;26.27;;;;;;;9.34;56.48;98616.66;8314790;28;20239;-62
2021/11/11 17:37:48;;;;;;;29.50;24.67;;;;;;;9.25;56.39;98616.09;8314267;28;20491;-62
2021/11/11 17:41:51;;;;;;;26.60;24.03;;;;;;;9.26;56.81;98615.22;8309733;28;20243;-62
2021/11/11 17:45:59;;;;;;;26.53;23.33;;;;;;;9.14;56.27;98616.41;8302715;28;20229;-62
2021/11/11 17:50:05;;;;;;;24.43;21.87;;;;;;;9.42;55.40;98615.59;8295100;28;20403;-61
2021/11/11 17:54:16;;;;;;;21.73;19.30;;;;;;;9.08;55.90;98617.44;8309500;28;20526;-61
2021/11/11 17:58:22;;;;;;;20.00;17.93;;;;;;;9.03;55.95;98618.44;8314986;28;20262;-62
2021/11/11 18:02:27;;;;;;;24.90;21.00;;;;;;;8.99;55.57;98622.84;8314740;28;20237;-62
2021/11/11 18:06:33;;;;;;;22.27;19.80;;;;;;;8.95;55.80;98619.50;8314441;28;20232;-62
2021/11/11 18:10:38;;;;;;;22.10;19.83;;;;;;;8.88;55.59;98623.13;8314506;28;20240;-62
2021/11/11 18:14:41;;;;;;;22.83;20.33;;;;;;;8.73;55.91;98628.69;8314673;28;20239;-62
2021/11/11 18:18:44;;;;;;;23.03;19.90;;;;;;;8.77;55.67;98625.16;8314724;28;20244;-62
2021/11/11 18:22:47;;;;;;;22.50;20.20;;;;;;;8.77;55.71;98625.16;8314885;28;20543;-62
2021/11/11 18:26:52;;;;;;;23.67;19.53;;;;;;;8.78;55.58;98625.13;8314392;28;20225;-62
2021/11/11 18:31:01;;;;;;;25.70;23.00;;;;;;;8.69;55.57;98640.84;8314295;28;20228;-62
2021/11/11 18:35:07;;;;;;;27.23;23.33;;;;;;;8.63;55.82;98645.34;8314485;28;20229;-62
2021/11/11 18:39:18;;;;;;;28.30;24.37;;;;;;;8.67;55.74;98636.63;8314110;28;20232;-64
2021/11/11 18:43:26;;;;;;;28.47;25.60;;;;;;;8.61;55.35;98628.13;8313907;28;20233;-64
2021/11/11 18:47:39;;;;;;;37.23;33.33;;;;;;;8.62;55.66;98628.97;8311767;28;20225;-65
2021/11/11 18:51:45;;;;;;;36.17;32.53;;;;;;;8.80;54.97;98625.06;8319985;28;20554;-64
2021/11/11 18:55:48;;;;;;;33.20;29.67;;;;;;;8.86;54.36;98622.31;8314949;28;20237;-64
2021/11/11 18:59:55;;;;;;;31.70;28.13;;;;;;;8.49;55.06;98630.16;8287264;28;20550;-64
2021/11/11 19:04:01;;;;;;;30.17;26.90;;;;;;;8.41;55.39;98628.66;8287143;28;20233;-61
2021/11/11 19:08:07;;;;;;;32.73;29.30;;;;;;;8.43;55.20;98627.75;8317513;28;20549;-62
2021/11/11 19:12:15;;;;;;;31.23;28.03;;;;;;;8.43;55.36;98630.34;8311240;28;20244;-62
2021/11/11 19:16:26;;;;;;;30.37;27.17;;;;;;;8.54;54.63;98624.00;8286979;28;20555;-61
2021/11/11 19:20:29;;;;;;;35.90;25.97;;;;;;;10.31;74.92;98628.41;8286398;28;20321;-61
2021/11/11 19:24:32;;;;;;;26.67;22.50;;;;;;;11.57;53.15;98621.38;8286429;28;20237;-61
2021/11/11 19:28:35;;;;;;;27.30;23.77;;;;;;;12.13;48.44;98625.31;8286400;28;20237;-62
2021/11/11 19:32:40;;;;;;;27.47;24.73;;;;;;;10.19;49.49;98624.44;8286256;28;20245;-62
2021/11/11 19:36:51;;;;;;;28.20;25.37;;;;;;;9.73;50.60;98631.06;8286491;28;20233;-62
2021/11/11 19:41:06;;;;;;;25.43;22.93;;;;;;;9.42;51.50;98637.13;8286429;28;20234;-62
2021/11/11 19:50:01;;;;;;;26.97;24.07;;;;;;;9.11;51.94;98627.66;8285477;28;20225;-61
2021/11/11 19:54:16;;;;;;;38.40;34.53;;;;;;;8.99;52.04;98620.25;8286167;28;20255;-61
2021/11/11 20:07:13;;;;;;;23.20;21.03;;;;;;;8.63;51.98;98624.69;8285610;28;20252;-61
2021/11/11 20:11:22;;;;;;;28.47;24.77;;;;;;;8.52;52.36;98622.38;8285066;28;20244;-61
2021/11/11 20:20:11;;;;;;;36.93;32.70;;;;;;;8.36;52.80;98619.28;8291647;28;20225;-65
2021/11/11 20:33:14;;;;;;;28.50;24.53;;;;;;;8.17;52.78;98626.66;8316783;28;20282;-66
2021/11/11 20:50:48;;;;;;;27.23;24.33;;;;;;;8.07;52.58;98627.72;8299397;28;20225;-66
2021/11/11 20:55:08;;;;;;;26.63;23.83;;;;;;;7.72;53.24;98634.56;8299544;28;20381;-65
2021/11/11 21:03:37;;;;;;;26.77;23.97;;;;;;;7.96;52.51;98636.56;8290600;28;20229;-66
2021/11/11 21:07:45;;;;;;;26.33;22.60;;;;;;;7.77;53.35;98630.16;8299216;28;20418;-66
2021/11/11 21:11:56;;;;;;;25.57;22.50;;;;;;;7.89;53.06;98629.84;8297774;28;20241;-65
2021/11/11 21:20:27;;;;;;;24.77;22.17;;;;;;;7.86;52.74;98624.75;8292713;28;20283;-66
2021/11/11 21:24:33;;;;;;;25.97;23.23;;;;;;;7.79;52.50;98616.31;8298369;28;20240;-66
2021/11/11 21:28:43;;;;;;;32.43;28.00;;;;;;;7.73;52.53;98603.59;8298348;28;20225;-65
2021/11/11 21:32:47;;;;;;;97.60;66.83;;;;;;;7.73;52.63;98589.81;8298225;28;20351;-65
2021/11/11 21:36:57;;;;;;;45.20;39.90;;;;;;;7.78;52.35;98590.56;8299040;28;20239;-65
2021/11/11 21:41:02;;;;;;;38.93;34.93;;;;;;;7.64;52.75;98589.16;8298042;28;20256;-66
2021/11/11 21:45:09;;;;;;;31.27;28.17;;;;;;;7.72;52.88;98570.94;8297733;28;20235;-66
2021/11/11 21:49:14;;;;;;;23.07;20.73;;;;;;;7.66;52.63;98578.81;8297764;28;20536;-66
2021/11/11 21:53:21;;;;;;;24.73;22.13;;;;;;;7.67;52.01;98577.91;8299746;28;20235;-66
2021/11/11 21:57:28;;;;;;;50.27;41.63;;;;;;;7.64;52.03;98570.28;8297785;28;20562;-66
2021/11/11 22:23:26;;;;;;;22.60;20.13;;;;;;;7.52;52.32;98550.78;8299423;28;20237;-66
2021/11/11 22:27:43;;;;;;;26.87;24.07;;;;;;;7.54;52.60;98546.44;8303481;28;20229;-66
2021/11/11 22:31:56;;;;;;;37.77;32.77;;;;;;;7.53;52.82;98546.47;8303568;28;20568;-66
2021/11/11 22:35:59;;;;;;;30.17;22.83;;;;;;;7.37;52.82;98551.97;8303534;28;20566;-65
2021/11/11 22:40:04;;;;;;;28.93;23.33;;;;;;;7.41;52.60;98557.91;8306211;28;20231;-66
2021/11/11 22:44:09;;;;;;;28.97;23.50;;;;;;;7.30;53.25;98559.88;8303311;28;20228;-65
2021/11/11 22:48:12;;;;;;;24.87;22.17;;;;;;;7.21;53.38;98546.28;8303985;28;20227;-65
2021/11/11 22:52:15;;;;;;;22.80;20.10;;;;;;;7.35;53.39;98547.72;8303110;28;20231;-66
2021/11/11 22:56:24;;;;;;;21.73;19.43;;;;;;;7.29;53.46;98553.88;8311673;28;20426;-65
2021/11/11 23:00:35;;;;;;;21.27;18.50;;;;;;;7.24;53.77;98547.97;8313632;28;20225;-70
2021/11/11 23:04:52;;;;;;;20.57;18.47;;;;;;;7.29;54.01;98545.28;8286982;28;20246;-66
2021/11/11 23:09:14;;;;;;;21.20;17.03;;;;;;;7.12;54.30;98543.06;8287160;28;20233;-66
2021/11/11 23:13:37;;;;;;;19.10;16.63;;;;;;;7.30;54.11;98534.09;8287414;28;20240;-65
2021/11/11 23:18:05;;;;;;;24.27;18.73;;;;;;;7.40;54.38;98544.16;8286407;28;20426;-66
2021/11/11 23:22:21;;;;;;;44.50;21.83;;;;;;;7.24;55.73;98533.34;8286818;28;20233;-66
2021/11/11 23:35:04;;;;;;;29.37;19.53;;;;;;;7.29;56.11;98535.84;8285412;28;20233;-66
2021/11/11 23:39:07;;;;;;;72.87;21.70;;;;;;;7.31;56.50;98533.19;8305497;28;20233;-66